createdAt,value
2019-03-22T00:01:02.207Z,10.13
2019-03-22T00:03:31.983Z,10.90
2019-03-22T00:06:01.813Z,9.60
2019-03-22T00:08:31.694Z,11.10
2019-03-22T00:11:01.815Z,11.40
2019-03-22T00:13:31.613Z,11.87
2019-03-22T00:16:01.446Z,11.57
2019-03-22T00:18:31.258Z,12.07
2019-03-22T00:21:01.071Z,13.60
2019-03-22T00:23:30.865Z,11.23
2019-03-22T00:26:00.647Z,11.27
2019-03-22T00:28:30.448Z,9.37
2019-03-22T00:31:00.298Z,12.50
2019-03-22T00:33:30.101Z,11.13
2019-03-22T00:35:59.882Z,10.33
2019-03-22T00:38:29.708Z,12.03
2019-03-22T00:40:59.533Z,12.70
2019-03-22T00:43:29.359Z,9.00
2019-03-22T00:45:59.192Z,10.23
2019-03-22T00:48:28.970Z,10.23
2019-03-22T00:50:58.807Z,11.53
2019-03-22T00:53:28.619Z,12.70
2019-03-22T00:55:58.406Z,11.93
2019-03-22T00:58:28.178Z,14.60
2019-03-22T01:00:57.981Z,11.03
2019-03-22T01:03:27.786Z,11.10
2019-03-22T01:05:57.959Z,9.40
2019-03-22T01:08:27.715Z,10.53
2019-03-22T01:10:57.524Z,10.93
2019-03-22T01:13:27.354Z,8.87
2019-03-22T01:15:57.157Z,11.50
2019-03-22T01:18:26.935Z,13.33
2019-03-22T01:20:56.762Z,11.20
2019-03-22T01:23:26.550Z,13.43
2019-03-22T01:25:56.358Z,9.10
2019-03-22T01:28:26.154Z,11.03
2019-03-22T01:30:55.943Z,13.43
2019-03-22T01:33:25.770Z,11.33
2019-03-22T01:35:55.546Z,11.20
2019-03-22T01:38:25.354Z,13.80
2019-03-22T01:40:55.120Z,10.53
2019-03-22T01:43:24.979Z,12.33
2019-03-22T01:45:54.777Z,10.07
2019-03-22T01:48:24.577Z,13.50
2019-03-22T01:50:54.389Z,10.10
2019-03-22T01:53:24.217Z,9.70
2019-03-22T01:55:54.012Z,9.27
2019-03-22T01:58:23.802Z,9.33
2019-03-22T02:00:53.792Z,9.83
2019-03-22T02:03:23.590Z,9.60
2019-03-22T02:05:53.641Z,11.57
2019-03-22T02:08:23.409Z,9.53
2019-03-22T02:10:53.197Z,9.20
2019-03-22T02:13:23.018Z,9.47
2019-03-22T02:15:52.818Z,8.63
2019-03-22T02:18:22.623Z,9.80
2019-03-22T02:20:52.439Z,11.50
2019-03-22T02:23:22.207Z,10.90
2019-03-22T02:25:52.259Z,9.90
2019-03-22T02:28:22.079Z,10.00
2019-03-22T02:30:51.862Z,10.90
2019-03-22T02:33:21.642Z,10.53
2019-03-22T02:35:51.415Z,9.30
2019-03-22T02:38:21.213Z,9.23
2019-03-22T02:40:51.032Z,8.93
2019-03-22T02:43:20.831Z,12.80
2019-03-22T02:45:50.622Z,10.30
2019-03-22T02:48:20.427Z,10.77
2019-03-22T02:50:50.241Z,11.30
2019-03-22T02:53:20.043Z,10.70
2019-03-22T02:55:49.875Z,10.77
2019-03-22T02:58:21.344Z,11.50
2019-03-22T03:00:51.508Z,9.13
2019-03-22T03:03:21.328Z,9.63
2019-03-22T03:05:51.168Z,9.57
2019-03-22T03:08:21.010Z,9.63
2019-03-22T03:10:50.791Z,10.03
2019-03-22T03:13:20.574Z,9.23
2019-03-22T03:15:50.369Z,9.93
2019-03-22T03:18:20.196Z,11.07
2019-03-22T03:20:49.971Z,11.53
2019-03-22T03:23:19.759Z,9.53
2019-03-22T03:25:49.548Z,8.23
2019-03-22T03:28:19.330Z,8.83
2019-03-22T03:30:49.140Z,11.37
2019-03-22T03:33:18.949Z,8.50
2019-03-22T03:35:48.726Z,10.17
2019-03-22T03:38:18.547Z,9.30
2019-03-22T03:40:48.349Z,10.50
2019-03-22T03:43:18.113Z,8.17
2019-03-22T03:45:47.906Z,10.63
2019-03-22T03:48:17.659Z,8.70
2019-03-22T03:50:47.460Z,10.17
2019-03-22T03:53:17.584Z,8.90
2019-03-22T03:55:47.371Z,9.10
2019-03-22T03:58:17.144Z,10.67
2019-03-22T04:00:46.950Z,9.00
2019-03-22T04:03:16.749Z,9.40
2019-03-22T04:05:46.522Z,9.73
2019-03-22T04:08:16.325Z,9.10
2019-03-22T04:10:46.146Z,11.73
2019-03-22T04:13:15.950Z,11.90
2019-03-22T04:15:45.774Z,10.27
2019-03-22T04:18:15.596Z,11.40
2019-03-22T04:20:45.743Z,10.10
2019-03-22T04:23:15.559Z,11.90
2019-03-22T04:25:45.320Z,10.67
2019-03-22T04:28:18.049Z,8.97
2019-03-22T04:30:47.909Z,11.50
2019-03-22T04:33:17.708Z,13.50
2019-03-22T04:35:47.536Z,11.97
2019-03-22T04:38:17.332Z,12.40
2019-03-22T04:40:47.113Z,10.60
2019-03-22T04:43:16.929Z,10.67
2019-03-22T04:45:48.118Z,12.67
2019-03-22T04:48:28.049Z,13.67
2019-03-22T04:51:00.475Z,12.70
2019-03-22T04:53:37.743Z,11.17
2019-03-22T04:56:12.070Z,11.80
2019-03-22T04:58:46.614Z,12.10
2019-03-22T05:01:16.239Z,12.33
2019-03-22T05:03:46.605Z,11.73
2019-03-22T05:06:19.372Z,10.60
2019-03-22T05:08:50.058Z,11.93
2019-03-22T05:11:21.851Z,12.63
2019-03-22T05:13:54.712Z,12.07
2019-03-22T05:16:24.758Z,12.23
2019-03-22T05:18:56.175Z,13.93
2019-03-22T05:21:28.215Z,12.40
2019-03-22T05:24:01.644Z,10.33
2019-03-22T05:26:34.657Z,11.27
2019-03-22T05:29:06.382Z,10.27
2019-03-22T05:32:11.731Z,16.77
2019-03-22T05:34:41.508Z,12.87
2019-03-22T05:37:11.292Z,11.50
2019-03-22T05:39:41.126Z,12.00
2019-03-22T05:42:10.899Z,11.07
2019-03-22T05:44:40.728Z,13.23
2019-03-22T05:47:10.518Z,9.93
2019-03-22T05:49:40.366Z,9.97
2019-03-22T05:52:10.154Z,11.43
2019-03-22T05:54:39.978Z,10.60
2019-03-22T05:57:13.553Z,11.63
2019-03-22T05:59:42.728Z,10.87
2019-03-22T06:02:12.828Z,10.80
2019-03-22T06:04:42.657Z,11.18
2019-03-22T06:07:12.478Z,9.90
2019-03-22T06:09:42.278Z,10.33
2019-03-22T06:12:12.138Z,9.13
2019-03-22T06:14:41.923Z,11.07
2019-03-22T06:17:11.768Z,11.63
2019-03-22T06:19:41.544Z,10.13
2019-03-22T06:22:11.319Z,10.20
2019-03-22T06:24:41.122Z,11.73
2019-03-22T06:27:10.967Z,10.67
2019-03-22T06:29:40.808Z,9.73
2019-03-22T06:32:10.635Z,10.47
2019-03-22T06:34:40.503Z,12.33
2019-03-22T06:37:10.290Z,9.33
2019-03-22T06:39:40.111Z,10.97
2019-03-22T06:42:09.913Z,9.73
2019-03-22T06:44:39.682Z,10.30
2019-03-22T06:47:11.069Z,12.23
2019-03-22T06:49:41.219Z,10.47
2019-03-22T06:52:11.087Z,14.23
2019-03-22T06:54:40.875Z,10.87
2019-03-22T06:57:10.694Z,11.73
2019-03-22T06:59:40.537Z,10.20
2019-03-22T07:02:10.327Z,9.93
2019-03-22T07:04:40.154Z,11.48
2019-03-22T07:07:09.967Z,10.57
2019-03-22T07:09:39.794Z,14.83
2019-03-22T07:12:09.662Z,10.57
2019-03-22T07:14:39.526Z,10.13
2019-03-22T07:17:09.355Z,10.77
2019-03-22T07:19:39.182Z,9.33
2019-03-22T07:22:08.952Z,9.87
2019-03-22T07:24:38.734Z,10.10
2019-03-22T07:27:08.516Z,9.90
2019-03-22T07:29:38.371Z,11.27
2019-03-22T07:32:08.234Z,9.27
2019-03-22T07:34:38.092Z,9.23
2019-03-22T07:37:07.919Z,12.53
2019-03-22T07:39:37.773Z,9.97
2019-03-22T07:42:07.679Z,10.77
2019-03-22T07:44:37.543Z,12.93
2019-03-22T07:47:07.392Z,11.00
2019-03-22T07:49:37.217Z,11.57
2019-03-22T07:52:07.093Z,10.67
2019-03-22T07:54:36.901Z,12.97
2019-03-22T07:57:06.775Z,11.20
2019-03-22T07:59:36.630Z,9.40
2019-03-22T08:02:06.466Z,9.13
2019-03-22T08:04:36.273Z,9.57
2019-03-22T08:07:06.146Z,9.27
2019-03-22T08:09:35.962Z,11.43
2019-03-22T08:12:05.821Z,10.87
2019-03-22T08:14:35.638Z,15.17
2019-03-22T08:17:05.434Z,9.40
2019-03-22T08:19:35.265Z,9.90
2019-03-22T08:22:05.093Z,10.83
2019-03-22T08:24:34.911Z,10.97
2019-03-22T08:27:04.764Z,10.37
2019-03-22T08:29:34.749Z,9.23
2019-03-22T08:32:04.634Z,8.73
2019-03-22T08:34:34.454Z,9.47
2019-03-22T08:37:04.266Z,10.17
2019-03-22T08:39:34.115Z,7.87
2019-03-22T08:42:03.910Z,12.07
2019-03-22T08:44:33.774Z,10.00
2019-03-22T08:47:03.577Z,11.27
2019-03-22T08:49:33.555Z,15.90
2019-03-22T08:52:03.949Z,9.53
2019-03-22T08:54:33.750Z,10.73
2019-03-22T08:57:03.675Z,9.97
2019-03-22T08:59:33.530Z,9.03
2019-03-22T09:02:03.410Z,10.60
2019-03-22T09:04:33.214Z,15.83
2019-03-22T09:07:03.181Z,12.70
2019-03-22T09:09:41.430Z,12.20
2019-03-22T09:12:04.688Z,10.77
2019-03-22T09:14:34.543Z,9.90
2019-03-22T09:17:06.833Z,10.37
2019-03-22T09:19:36.736Z,13.13
2019-03-22T09:22:06.566Z,11.63
2019-03-22T09:24:39.340Z,8.13
2019-03-22T09:27:08.072Z,8.13
2019-03-22T09:29:37.910Z,8.07
2019-03-22T09:32:08.187Z,12.97
2019-03-22T09:34:38.017Z,8.27
2019-03-22T09:37:09.064Z,7.27
2019-03-22T09:39:39.186Z,8.27
2019-03-22T09:42:09.079Z,7.23
2019-03-22T09:44:43.091Z,10.03
2019-03-22T09:47:10.452Z,7.63
2019-03-22T09:49:40.251Z,7.47
2019-03-22T09:52:10.084Z,8.20
2019-03-22T09:54:39.985Z,7.50
2019-03-22T09:57:09.873Z,8.40
2019-03-22T09:59:39.735Z,11.13
2019-03-22T10:02:09.584Z,8.70
2019-03-22T10:04:39.474Z,10.73
2019-03-22T10:07:09.320Z,9.60
2019-03-22T10:09:39.161Z,8.97
2019-03-22T10:12:08.979Z,13.80
2019-03-22T10:14:38.787Z,8.23
2019-03-22T10:17:08.652Z,8.23
2019-03-22T10:19:38.495Z,9.37
2019-03-22T10:22:08.353Z,7.53
2019-03-22T10:24:38.137Z,9.53
2019-03-22T10:27:07.948Z,6.40
2019-03-22T10:29:37.793Z,7.90
2019-03-22T10:32:07.677Z,5.57
2019-03-22T10:34:39.742Z,7.60
2019-03-22T10:37:09.062Z,7.97
2019-03-22T10:39:38.920Z,6.83
2019-03-22T10:42:08.727Z,8.47
2019-03-22T10:44:39.548Z,5.20
2019-03-22T10:47:09.533Z,8.37
2019-03-22T10:49:41.787Z,6.67
2019-03-22T10:52:11.492Z,6.43
2019-03-22T10:54:41.386Z,5.20
2019-03-22T10:57:11.202Z,7.67
2019-03-22T10:59:41.010Z,5.87
2019-03-22T11:02:11.223Z,6.37
2019-03-22T11:04:41.041Z,4.50
2019-03-22T11:07:10.859Z,5.00
2019-03-22T11:09:40.690Z,3.70
2019-03-22T11:12:12.480Z,5.77
2019-03-22T11:14:42.102Z,6.87
2019-03-22T11:17:11.933Z,6.13
2019-03-22T11:19:41.943Z,6.33
2019-03-22T11:22:11.789Z,6.50
2019-03-22T11:24:41.659Z,5.57
2019-03-22T11:27:13.641Z,7.77
2019-03-22T11:29:43.065Z,6.30
2019-03-22T11:32:13.091Z,4.17
2019-03-22T11:34:43.162Z,3.23
2019-03-22T11:37:13.147Z,4.30
2019-03-22T11:39:43.023Z,4.63
2019-03-22T11:42:12.811Z,5.73
2019-03-22T11:44:42.664Z,3.70
2019-03-22T11:47:12.511Z,5.10
2019-03-22T11:49:42.418Z,4.10
2019-03-22T11:52:12.206Z,5.23
2019-03-22T11:54:42.027Z,4.17
2019-03-22T11:57:11.910Z,7.60
2019-03-22T11:59:41.742Z,5.20
2019-03-22T12:02:11.573Z,5.03
2019-03-22T12:04:41.360Z,4.67
2019-03-22T12:07:11.525Z,8.03
2019-03-22T12:09:41.365Z,5.40
2019-03-22T12:12:11.187Z,5.63
2019-03-22T12:14:41.330Z,5.50
2019-03-22T12:17:12.685Z,6.47
2019-03-22T12:19:42.553Z,4.87
2019-03-22T12:22:12.365Z,4.67
2019-03-22T12:24:42.187Z,7.30
2019-03-22T12:27:12.122Z,4.80
2019-03-22T12:29:42.068Z,5.67
2019-03-22T12:32:11.921Z,8.40
2019-03-22T12:34:41.772Z,6.53
2019-03-22T12:37:11.578Z,5.77
2019-03-22T12:39:41.891Z,6.13
2019-03-22T12:42:11.910Z,6.83
2019-03-22T12:44:41.714Z,4.53
2019-03-22T12:47:11.586Z,5.87
2019-03-22T12:49:41.412Z,6.53
2019-03-22T12:52:11.255Z,4.07
2019-03-22T12:54:41.108Z,4.73
2019-03-22T12:57:10.910Z,5.10
2019-03-22T12:59:40.732Z,5.30
2019-03-22T13:02:10.555Z,8.87
2019-03-22T13:04:40.418Z,3.30
2019-03-22T13:07:10.262Z,5.60
2019-03-22T13:09:40.094Z,4.53
2019-03-22T13:12:09.938Z,6.63
2019-03-22T13:14:39.817Z,5.27
2019-03-22T13:17:09.710Z,8.23
2019-03-22T13:19:39.526Z,4.57
2019-03-22T13:22:09.395Z,4.07
2019-03-22T13:24:39.224Z,3.73
2019-03-22T13:27:09.017Z,6.43
2019-03-22T13:29:38.803Z,4.93
2019-03-22T13:32:08.659Z,4.53
2019-03-22T13:34:38.525Z,5.63
2019-03-22T13:37:08.370Z,4.67
2019-03-22T13:39:38.194Z,5.70
2019-03-22T13:42:08.028Z,6.07
2019-03-22T13:44:38.025Z,4.47
2019-03-22T13:47:07.835Z,4.50
2019-03-22T13:49:37.682Z,4.63
2019-03-22T13:52:07.805Z,4.30
2019-03-22T13:54:37.627Z,6.60
2019-03-22T13:57:07.417Z,5.87
2019-03-22T13:59:37.272Z,4.17
2019-03-22T14:02:07.230Z,3.73
2019-03-22T14:04:37.119Z,4.93
2019-03-22T14:07:07.069Z,6.17
2019-03-22T14:09:36.910Z,3.53
2019-03-22T14:12:06.729Z,6.97
2019-03-22T14:14:36.543Z,5.20
2019-03-22T14:17:06.364Z,5.60
2019-03-22T14:19:36.154Z,3.33
2019-03-22T14:22:05.979Z,3.47
2019-03-22T14:24:35.827Z,3.43
2019-03-22T14:27:05.624Z,4.30
2019-03-22T14:29:35.469Z,4.93
2019-03-22T14:32:05.311Z,3.60
2019-03-22T14:34:35.111Z,3.37
2019-03-22T14:37:05.014Z,2.93
2019-03-22T14:39:36.290Z,3.50
2019-03-22T14:42:06.116Z,4.43
2019-03-22T14:44:35.944Z,4.47
2019-03-22T14:47:05.749Z,6.67
2019-03-22T14:49:35.630Z,5.77
2019-03-22T14:52:05.463Z,6.07
2019-03-22T14:54:35.295Z,5.00
2019-03-22T14:57:05.206Z,4.03
2019-03-22T14:59:35.023Z,7.73
2019-03-22T15:02:04.883Z,4.00
2019-03-22T15:04:34.758Z,4.40
2019-03-22T15:07:04.634Z,4.73
2019-03-22T15:09:34.535Z,3.87
2019-03-22T15:12:04.665Z,5.50
2019-03-22T15:14:53.475Z,5.87
2019-03-22T15:17:48.477Z,5.33
2019-03-22T15:20:37.288Z,4.70
2019-03-22T15:23:25.553Z,4.30
2019-03-22T15:26:24.128Z,6.97
2019-03-22T15:29:25.238Z,4.23
2019-03-22T15:32:03.937Z,6.60
2019-03-22T15:34:46.888Z,8.00
2019-03-22T15:40:05.791Z,4.73
2019-03-22T15:42:35.607Z,6.00
2019-03-22T15:45:07.123Z,9.17
2019-03-22T15:47:36.973Z,6.23
2019-03-22T15:50:08.498Z,4.50
2019-03-22T15:52:38.324Z,5.93
2019-03-22T15:55:09.195Z,6.07
2019-03-22T15:57:38.987Z,5.70
2019-03-22T16:00:11.053Z,6.77
2019-03-22T16:02:40.918Z,7.93
2019-03-22T16:05:11.895Z,5.67
2019-03-22T16:07:41.710Z,5.60
2019-03-22T16:10:11.702Z,3.47
2019-03-22T16:12:41.596Z,4.43
2019-03-22T16:15:11.552Z,4.83
2019-03-22T16:17:41.450Z,6.43
2019-03-22T16:20:12.038Z,4.47
2019-03-22T16:22:41.903Z,4.20
2019-03-22T16:25:12.154Z,3.67
2019-03-22T16:27:41.997Z,6.77
2019-03-22T16:30:12.707Z,4.40
2019-03-22T16:32:42.578Z,6.03
2019-03-22T16:35:13.095Z,4.50
2019-03-22T16:37:43.050Z,4.17
2019-03-22T16:40:23.627Z,3.77
2019-03-22T16:42:45.441Z,6.23
2019-03-22T16:45:32.959Z,3.17
2019-03-22T16:48:02.782Z,3.43
2019-03-22T16:50:32.606Z,3.37
2019-03-22T16:53:02.468Z,6.07
2019-03-22T16:55:32.285Z,4.97
2019-03-22T16:58:02.113Z,3.80
2019-03-22T17:00:31.901Z,4.53
2019-03-22T17:03:01.803Z,7.17
2019-03-22T17:05:31.729Z,3.07
2019-03-22T17:08:01.569Z,5.20
2019-03-22T17:10:31.426Z,6.10
2019-03-22T17:13:01.270Z,5.50
2019-03-22T17:15:31.150Z,5.47
2019-03-22T17:18:01.013Z,3.77
2019-03-22T17:20:30.841Z,8.10
2019-03-22T17:23:00.678Z,3.90
2019-03-22T17:25:30.555Z,4.83
2019-03-22T17:28:00.362Z,5.63
2019-03-22T17:30:30.279Z,4.93
2019-03-22T17:33:00.105Z,5.67
2019-03-22T17:35:29.948Z,2.83
2019-03-22T17:37:59.788Z,4.27
2019-03-22T17:40:29.622Z,4.50
2019-03-22T17:42:59.412Z,6.50
2019-03-22T17:45:29.237Z,3.77
2019-03-22T17:47:59.060Z,4.13
2019-03-22T17:50:28.867Z,4.00
2019-03-22T17:52:58.728Z,4.13
2019-03-22T17:55:28.599Z,4.20
2019-03-22T17:57:58.548Z,7.97
2019-03-22T18:00:28.751Z,7.07
2019-03-22T18:02:58.692Z,4.37
2019-03-22T18:05:28.491Z,6.17
2019-03-22T18:07:58.338Z,5.20
2019-03-22T18:10:28.244Z,4.73
2019-03-22T18:12:58.125Z,4.80
2019-03-22T18:15:27.966Z,3.70
2019-03-22T18:18:16.553Z,5.83
2019-03-22T18:20:46.399Z,6.93
2019-03-22T18:23:16.198Z,8.63
2019-03-22T18:25:46.081Z,6.33
2019-03-22T18:28:15.932Z,4.53
2019-03-22T18:30:45.747Z,3.70
2019-03-22T18:33:15.643Z,3.60
2019-03-22T18:35:45.532Z,4.20
2019-03-22T18:38:15.659Z,6.40
2019-03-22T18:40:45.516Z,5.13
2019-03-22T18:43:15.372Z,4.50
2019-03-22T18:45:45.229Z,3.77
2019-03-22T18:48:15.128Z,6.53
2019-03-22T18:50:44.968Z,3.93
2019-03-22T18:53:14.787Z,4.33
2019-03-22T18:55:44.650Z,7.83
2019-03-22T18:58:14.816Z,5.10
2019-03-22T19:00:44.654Z,4.70
2019-03-22T19:03:14.510Z,4.07
2019-03-22T19:05:44.358Z,5.33
2019-03-22T19:08:14.323Z,6.00
2019-03-22T19:10:44.248Z,4.87
2019-03-22T19:13:14.054Z,6.43
2019-03-22T19:15:43.925Z,4.90
2019-03-22T19:18:13.811Z,4.20
2019-03-22T19:20:43.662Z,5.00
2019-03-22T19:23:13.530Z,6.93
2019-03-22T19:25:43.430Z,6.13
2019-03-22T19:28:13.331Z,5.33
2019-03-22T19:30:43.178Z,5.77
2019-03-22T19:33:13.051Z,4.77
2019-03-22T19:35:42.918Z,6.47
2019-03-22T19:38:12.743Z,4.10
2019-03-22T19:40:42.567Z,6.30
2019-03-22T19:43:12.442Z,6.57
2019-03-22T19:45:42.365Z,5.53
2019-03-22T19:48:12.204Z,4.80
2019-03-22T19:50:42.045Z,4.20
2019-03-22T19:53:11.961Z,5.73
2019-03-22T19:55:41.868Z,7.20
2019-03-22T19:58:11.701Z,4.87
2019-03-22T20:00:41.508Z,3.97
2019-03-22T20:03:11.356Z,3.70
2019-03-22T20:05:41.170Z,6.70
2019-03-22T20:08:13.718Z,8.43
2019-03-22T20:10:43.542Z,4.53
2019-03-22T20:13:13.458Z,4.70
2019-03-22T20:15:43.279Z,5.60
2019-03-22T20:18:13.100Z,8.67
2019-03-22T20:20:42.975Z,4.93
2019-03-22T20:23:12.807Z,4.93
2019-03-22T20:25:42.669Z,7.87
2019-03-22T20:28:12.783Z,4.77
2019-03-22T20:30:42.629Z,9.00
2019-03-22T20:33:12.473Z,4.80
2019-03-22T20:35:42.327Z,5.57
2019-03-22T20:38:12.183Z,8.90
2019-03-22T20:40:42.050Z,5.33
2019-03-22T20:43:11.917Z,8.07
2019-03-22T20:45:41.749Z,7.10
2019-03-22T20:48:11.556Z,6.73
2019-03-22T20:50:41.403Z,6.90
2019-03-22T20:53:11.271Z,6.77
2019-03-22T20:55:41.115Z,7.17
2019-03-22T20:58:10.958Z,6.63
2019-03-22T21:00:40.896Z,6.37
2019-03-22T21:03:10.771Z,8.93
2019-03-22T21:05:40.578Z,7.53
2019-03-22T21:08:10.443Z,5.50
2019-03-22T21:10:40.274Z,8.33
2019-03-22T21:13:10.147Z,6.33
2019-03-22T21:15:40.033Z,6.60
2019-03-22T21:18:09.963Z,11.33
2019-03-22T21:20:58.599Z,7.03
2019-03-22T21:23:36.382Z,5.00
2019-03-22T21:26:00.090Z,5.37
2019-03-22T21:28:29.944Z,4.23
2019-03-22T21:30:59.804Z,9.80
2019-03-22T21:33:29.736Z,4.40
2019-03-22T21:35:59.586Z,7.20
2019-03-22T21:38:29.419Z,5.93
2019-03-22T21:40:59.259Z,6.70
2019-03-22T21:43:29.163Z,4.37
2019-03-22T21:45:59.177Z,5.50
2019-03-22T21:48:29.042Z,4.27
2019-03-22T21:50:58.935Z,3.40
2019-03-22T21:53:28.840Z,6.83
2019-03-22T21:55:59.068Z,4.87
2019-03-22T21:58:28.899Z,4.33
2019-03-22T22:00:58.740Z,5.63
2019-03-22T22:03:28.596Z,6.07
2019-03-22T22:05:58.488Z,8.43
2019-03-22T22:08:28.355Z,4.30
2019-03-22T22:11:00.088Z,6.23
2019-03-22T22:13:29.736Z,10.57
2019-03-22T22:15:59.603Z,6.60
2019-03-22T22:18:29.480Z,5.33
2019-03-22T22:20:59.381Z,4.63
2019-03-22T22:23:29.275Z,9.07
2019-03-22T22:25:59.122Z,4.93
2019-03-22T22:28:28.991Z,5.67
2019-03-22T22:30:58.832Z,4.97
2019-03-22T22:33:28.700Z,4.97
2019-03-22T22:35:59.161Z,4.23
2019-03-22T22:38:29.175Z,5.07
2019-03-22T22:40:59.031Z,5.43
2019-03-22T22:43:28.883Z,4.03
2019-03-22T22:45:58.673Z,4.60
2019-03-22T22:48:28.534Z,4.67
2019-03-22T22:50:58.344Z,3.77
2019-03-22T22:53:28.232Z,4.20
2019-03-22T22:55:58.033Z,3.87
2019-03-22T22:58:27.926Z,6.80
2019-03-22T23:00:57.973Z,6.53
2019-03-22T23:03:27.826Z,4.93
2019-03-22T23:05:57.646Z,5.30
2019-03-22T23:08:27.486Z,8.30
2019-03-22T23:10:57.295Z,6.00
2019-03-22T23:13:27.100Z,5.97
2019-03-22T23:15:56.914Z,5.57
2019-03-22T23:18:26.749Z,4.27
2019-03-22T23:20:56.545Z,5.13
2019-03-22T23:23:26.444Z,4.33
2019-03-22T23:25:56.285Z,4.77
2019-03-22T23:28:26.223Z,5.50
2019-03-22T23:30:56.028Z,5.53
2019-03-22T23:33:25.882Z,6.33
2019-03-22T23:35:55.718Z,5.83
2019-03-22T23:38:25.557Z,6.63
2019-03-22T23:40:55.434Z,8.17
2019-03-22T23:43:25.253Z,5.87
2019-03-22T23:45:55.058Z,6.93
2019-03-22T23:48:24.961Z,10.03
2019-03-22T23:50:54.767Z,4.73
2019-03-22T23:53:24.559Z,6.90
2019-03-22T23:55:54.398Z,6.13
2019-03-22T23:58:24.230Z,9.80
